sensor_id;sensor_type;location;lat;lon;timestamp;temperature;humidity
26479;DHT22;14163;-26.142;27.992;2023-03-23T00:04:29;19.30;99.90
26479;DHT22;14163;-26.142;27.992;2023-03-23T00:06:58;19.10;99.90
26479;DHT22;14163;-26.142;27.992;2023-03-23T00:09:28;19.50;99.90
26479;DHT22;14163;-26.142;27.992;2023-03-23T00:12:01;20.00;99.90
26479;DHT22;14163;-26.142;27.992;2023-03-23T00:14:33;20.40;99.90
26479;DHT22;14163;-26.142;27.992;2023-03-23T00:17:09;20.80;99.90
26479;DHT22;14163;-26.142;27.992;2023-03-23T00:19:42;21.40;99.90
26479;DHT22;14163;-26.142;27.992;2023-03-23T00:22:18;22.00;99.90
26479;DHT22;14163;-26.142;27.992;2023-03-23T00:24:48;22.50;99.90
26479;DHT22;14163;-26.142;27.992;2023-03-23T00:27:17;22.90;99.90
26479;DHT22;14163;-26.142;27.992;2023-03-23T00:29:48;23.20;99.90
26479;DHT22;14163;-26.142;27.992;2023-03-23T00:32:20;23.30;99.90
26479;DHT22;14163;-26.142;27.992;2023-03-23T00:34:56;23.20;99.90
26479;DHT22;14163;-26.142;27.992;2023-03-23T00:37:27;23.10;99.90
26479;DHT22;14163;-26.142;27.992;2023-03-23T00:39:56;23.00;99.90
26479;DHT22;14163;-26.142;27.992;2023-03-23T00:42:27;23.00;99.90
26479;DHT22;14163;-26.142;27.992;2023-03-23T00:44:56;22.90;99.90
26479;DHT22;14163;-26.142;27.992;2023-03-23T00:47:27;22.70;99.90
26479;DHT22;14163;-26.142;27.992;2023-03-23T00:49:58;22.40;99.90
26479;DHT22;14163;-26.142;27.992;2023-03-23T00:52:28;22.30;99.90
26479;DHT22;14163;-26.142;27.992;2023-03-23T00:54:57;22.30;99.90
26479;DHT22;14163;-26.142;27.992;2023-03-23T00:57:26;22.20;99.90
26479;DHT22;14163;-26.142;27.992;2023-03-23T00:59:55;22.30;99.90
26479;DHT22;14163;-26.142;27.992;2023-03-23T01:02:24;22.60;99.90
26479;DHT22;14163;-26.142;27.992;2023-03-23T01:04:53;22.60;99.90
26479;DHT22;14163;-26.142;27.992;2023-03-23T01:07:25;22.40;99.90
26479;DHT22;14163;-26.142;27.992;2023-03-23T01:09:55;22.50;99.90
26479;DHT22;14163;-26.142;27.992;2023-03-23T01:12:24;22.60;99.90
26479;DHT22;14163;-26.142;27.992;2023-03-23T01:14:53;22.40;99.90
26479;DHT22;14163;-26.142;27.992;2023-03-23T01:17:22;22.00;99.90
26479;DHT22;14163;-26.142;27.992;2023-03-23T01:19:52;22.10;99.90
26479;DHT22;14163;-26.142;27.992;2023-03-23T01:22:21;22.10;99.90
26479;DHT22;14163;-26.142;27.992;2023-03-23T01:24:51;22.10;99.90
26479;DHT22;14163;-26.142;27.992;2023-03-23T01:27:20;22.10;99.90
26479;DHT22;14163;-26.142;27.992;2023-03-23T01:29:50;22.10;99.90
26479;DHT22;14163;-26.142;27.992;2023-03-23T01:32:19;22.20;99.90
26479;DHT22;14163;-26.142;27.992;2023-03-23T01:34:48;22.30;99.90
26479;DHT22;14163;-26.142;27.992;2023-03-23T01:37:17;22.20;99.90
26479;DHT22;14163;-26.142;27.992;2023-03-23T01:39:47;22.00;99.90
26479;DHT22;14163;-26.142;27.992;2023-03-23T01:42:18;21.70;99.90
26479;DHT22;14163;-26.142;27.992;2023-03-23T01:48:00;21.30;99.90
26479;DHT22;14163;-26.142;27.992;2023-03-23T01:50:34;21.20;99.90
26479;DHT22;14163;-26.142;27.992;2023-03-23T01:53:06;21.40;99.90
26479;DHT22;14163;-26.142;27.992;2023-03-23T01:55:38;21.50;99.90
26479;DHT22;14163;-26.142;27.992;2023-03-23T01:58:11;21.50;99.90
26479;DHT22;14163;-26.142;27.992;2023-03-23T02:00:40;21.40;99.90
26479;DHT22;14163;-26.142;27.992;2023-03-23T02:03:10;21.50;99.90
26479;DHT22;14163;-26.142;27.992;2023-03-23T02:05:43;21.40;99.90
26479;DHT22;14163;-26.142;27.992;2023-03-23T02:08:13;21.40;99.90
26479;DHT22;14163;-26.142;27.992;2023-03-23T02:10:43;21.50;99.90
26479;DHT22;14163;-26.142;27.992;2023-03-23T02:13:14;21.80;99.90
26479;DHT22;14163;-26.142;27.992;2023-03-23T02:15:48;21.90;99.90
26479;DHT22;14163;-26.142;27.992;2023-03-23T02:18:29;22.00;99.90
26479;DHT22;14163;-26.142;27.992;2023-03-23T02:24:27;21.70;99.90
26479;DHT22;14163;-26.142;27.992;2023-03-23T02:27:00;21.70;99.90
26479;DHT22;14163;-26.142;27.992;2023-03-23T02:29:55;21.70;99.90
26479;DHT22;14163;-26.142;27.992;2023-03-23T02:35:33;21.50;99.90
26479;DHT22;14163;-26.142;27.992;2023-03-23T02:38:05;21.50;99.90
26479;DHT22;14163;-26.142;27.992;2023-03-23T02:40:40;21.30;99.90
26479;DHT22;14163;-26.142;27.992;2023-03-23T02:43:12;21.60;99.90
26479;DHT22;14163;-26.142;27.992;2023-03-23T02:45:44;21.90;99.90
26479;DHT22;14163;-26.142;27.992;2023-03-23T02:48:15;22.20;99.90
26479;DHT22;14163;-26.142;27.992;2023-03-23T02:50:51;22.40;99.90
26479;DHT22;14163;-26.142;27.992;2023-03-23T02:53:23;22.50;99.90
26479;DHT22;14163;-26.142;27.992;2023-03-23T02:55:53;22.60;99.90
26479;DHT22;14163;-26.142;27.992;2023-03-23T02:58:25;22.80;99.90
26479;DHT22;14163;-26.142;27.992;2023-03-23T03:00:55;22.90;99.90
26479;DHT22;14163;-26.142;27.992;2023-03-23T03:03:28;22.70;99.90
26479;DHT22;14163;-26.142;27.992;2023-03-23T03:06:08;22.60;99.90
26479;DHT22;14163;-26.142;27.992;2023-03-23T03:08:45;22.80;99.90
26479;DHT22;14163;-26.142;27.992;2023-03-23T03:11:19;22.80;99.90
26479;DHT22;14163;-26.142;27.992;2023-03-23T03:13:55;22.40;99.90
26479;DHT22;14163;-26.142;27.992;2023-03-23T03:16:31;22.00;99.90
26479;DHT22;14163;-26.142;27.992;2023-03-23T03:19:05;21.60;99.90
26479;DHT22;14163;-26.142;27.992;2023-03-23T03:21:40;21.50;99.90
26479;DHT22;14163;-26.142;27.992;2023-03-23T03:24:12;21.20;99.90
26479;DHT22;14163;-26.142;27.992;2023-03-23T03:26:45;21.20;99.90
26479;DHT22;14163;-26.142;27.992;2023-03-23T03:29:17;21.30;99.90
26479;DHT22;14163;-26.142;27.992;2023-03-23T03:31:48;21.30;99.90
26479;DHT22;14163;-26.142;27.992;2023-03-23T03:34:18;21.70;99.90
26479;DHT22;14163;-26.142;27.992;2023-03-23T03:36:50;21.70;99.90
26479;DHT22;14163;-26.142;27.992;2023-03-23T03:39:20;21.70;99.90
26479;DHT22;14163;-26.142;27.992;2023-03-23T03:41:49;21.50;99.90
26479;DHT22;14163;-26.142;27.992;2023-03-23T03:44:19;21.50;99.90
26479;DHT22;14163;-26.142;27.992;2023-03-23T03:46:48;21.70;99.90
26479;DHT22;14163;-26.142;27.992;2023-03-23T03:49:17;21.80;99.90
26479;DHT22;14163;-26.142;27.992;2023-03-23T03:51:46;21.70;99.90
26479;DHT22;14163;-26.142;27.992;2023-03-23T03:54:17;21.60;99.90
26479;DHT22;14163;-26.142;27.992;2023-03-23T03:56:46;21.40;99.90
26479;DHT22;14163;-26.142;27.992;2023-03-23T03:59:15;21.40;99.90
26479;DHT22;14163;-26.142;27.992;2023-03-23T04:01:44;21.50;99.90
26479;DHT22;14163;-26.142;27.992;2023-03-23T04:04:13;21.30;99.90
26479;DHT22;14163;-26.142;27.992;2023-03-23T04:06:43;21.30;99.90
26479;DHT22;14163;-26.142;27.992;2023-03-23T04:09:12;21.30;99.90
26479;DHT22;14163;-26.142;27.992;2023-03-23T04:11:43;21.20;99.90
26479;DHT22;14163;-26.142;27.992;2023-03-23T04:14:12;21.10;99.90
26479;DHT22;14163;-26.142;27.992;2023-03-23T04:16:41;21.10;99.90
26479;DHT22;14163;-26.142;27.992;2023-03-23T04:19:10;21.00;99.90
26479;DHT22;14163;-26.142;27.992;2023-03-23T04:21:40;21.30;99.90
26479;DHT22;14163;-26.142;27.992;2023-03-23T04:24:09;21.20;99.90
26479;DHT22;14163;-26.142;27.992;2023-03-23T04:26:38;21.00;99.90
26479;DHT22;14163;-26.142;27.992;2023-03-23T04:29:10;21.10;99.90
26479;DHT22;14163;-26.142;27.992;2023-03-23T04:31:42;21.00;99.90
26479;DHT22;14163;-26.142;27.992;2023-03-23T04:34:12;21.00;99.90
26479;DHT22;14163;-26.142;27.992;2023-03-23T04:36:41;21.10;99.90
26479;DHT22;14163;-26.142;27.992;2023-03-23T04:39:11;21.10;99.90
26479;DHT22;14163;-26.142;27.992;2023-03-23T04:41:40;21.20;99.90
26479;DHT22;14163;-26.142;27.992;2023-03-23T04:44:13;21.20;99.90
26479;DHT22;14163;-26.142;27.992;2023-03-23T04:46:44;21.20;99.90
26479;DHT22;14163;-26.142;27.992;2023-03-23T04:49:16;21.10;99.90
26479;DHT22;14163;-26.142;27.992;2023-03-23T04:51:47;20.80;99.90
26479;DHT22;14163;-26.142;27.992;2023-03-23T04:54:17;20.80;99.90
26479;DHT22;14163;-26.142;27.992;2023-03-23T04:56:47;20.80;99.90
26479;DHT22;14163;-26.142;27.992;2023-03-23T04:59:18;20.90;99.90
26479;DHT22;14163;-26.142;27.992;2023-03-23T05:01:48;21.00;99.90
26479;DHT22;14163;-26.142;27.992;2023-03-23T05:04:17;21.50;99.90
26479;DHT22;14163;-26.142;27.992;2023-03-23T05:06:46;21.50;99.90
26479;DHT22;14163;-26.142;27.992;2023-03-23T05:09:15;21.50;99.90
26479;DHT22;14163;-26.142;27.992;2023-03-23T05:11:45;21.20;99.90
26479;DHT22;14163;-26.142;27.992;2023-03-23T05:14:14;21.10;99.90
26479;DHT22;14163;-26.142;27.992;2023-03-23T05:16:45;21.00;99.90
26479;DHT22;14163;-26.142;27.992;2023-03-23T05:19:15;21.20;99.90
26479;DHT22;14163;-26.142;27.992;2023-03-23T05:21:45;21.40;99.90
26479;DHT22;14163;-26.142;27.992;2023-03-23T05:24:14;21.20;99.90
26479;DHT22;14163;-26.142;27.992;2023-03-23T05:26:44;20.90;99.90
26479;DHT22;14163;-26.142;27.992;2023-03-23T05:29:15;21.00;99.90
26479;DHT22;14163;-26.142;27.992;2023-03-23T05:31:46;21.20;99.90
26479;DHT22;14163;-26.142;27.992;2023-03-23T05:34:15;21.20;99.90
26479;DHT22;14163;-26.142;27.992;2023-03-23T05:36:44;21.20;99.90
26479;DHT22;14163;-26.142;27.992;2023-03-23T05:39:13;20.90;99.90
26479;DHT22;14163;-26.142;27.992;2023-03-23T05:41:43;20.90;99.90
26479;DHT22;14163;-26.142;27.992;2023-03-23T05:44:13;20.70;99.90
26479;DHT22;14163;-26.142;27.992;2023-03-23T05:46:44;20.60;99.90
26479;DHT22;14163;-26.142;27.992;2023-03-23T05:49:13;20.40;99.90
26479;DHT22;14163;-26.142;27.992;2023-03-23T05:51:43;20.40;99.90
26479;DHT22;14163;-26.142;27.992;2023-03-23T05:54:13;20.40;99.90
26479;DHT22;14163;-26.142;27.992;2023-03-23T05:56:43;20.40;99.90
26479;DHT22;14163;-26.142;27.992;2023-03-23T05:59:12;20.80;99.90
26479;DHT22;14163;-26.142;27.992;2023-03-23T08:05:28;23.20;99.90
26479;DHT22;14163;-26.142;27.992;2023-03-23T08:07:59;19.70;99.90
26479;DHT22;14163;-26.142;27.992;2023-03-23T08:10:28;20.10;99.90
26479;DHT22;14163;-26.142;27.992;2023-03-23T08:12:57;20.80;99.90
26479;DHT22;14163;-26.142;27.992;2023-03-23T08:15:28;21.10;99.90
26479;DHT22;14163;-26.142;27.992;2023-03-23T08:17:59;21.40;99.90
26479;DHT22;14163;-26.142;27.992;2023-03-23T08:20:31;21.70;99.90
26479;DHT22;14163;-26.142;27.992;2023-03-23T08:23:00;21.90;99.90
26479;DHT22;14163;-26.142;27.992;2023-03-23T08:25:30;21.80;99.90
26479;DHT22;14163;-26.142;27.992;2023-03-23T08:28:00;21.90;99.90
26479;DHT22;14163;-26.142;27.992;2023-03-23T08:30:30;21.80;99.90
26479;DHT22;14163;-26.142;27.992;2023-03-23T08:33:00;21.80;99.90
26479;DHT22;14163;-26.142;27.992;2023-03-23T08:35:33;22.10;99.90
26479;DHT22;14163;-26.142;27.992;2023-03-23T08:38:03;22.40;99.90
26479;DHT22;14163;-26.142;27.992;2023-03-23T08:40:32;22.60;99.90
26479;DHT22;14163;-26.142;27.992;2023-03-23T08:43:01;22.70;99.90
26479;DHT22;14163;-26.142;27.992;2023-03-23T08:45:31;22.60;99.90
26479;DHT22;14163;-26.142;27.992;2023-03-23T08:48:01;22.60;99.90
26479;DHT22;14163;-26.142;27.992;2023-03-23T08:50:32;22.60;99.90
26479;DHT22;14163;-26.142;27.992;2023-03-23T08:53:01;22.30;99.90
26479;DHT22;14163;-26.142;27.992;2023-03-23T08:55:30;22.60;99.90
26479;DHT22;14163;-26.142;27.992;2023-03-23T08:57:59;22.90;99.90
26479;DHT22;14163;-26.142;27.992;2023-03-23T09:00:30;23.20;99.90
26479;DHT22;14163;-26.142;27.992;2023-03-23T09:02:59;23.20;99.90
26479;DHT22;14163;-26.142;27.992;2023-03-23T09:05:29;23.20;99.90
26479;DHT22;14163;-26.142;27.992;2023-03-23T09:08:00;23.50;99.90
26479;DHT22;14163;-26.142;27.992;2023-03-23T09:10:30;23.70;99.90
26479;DHT22;14163;-26.142;27.992;2023-03-23T09:13:00;23.30;99.90
26479;DHT22;14163;-26.142;27.992;2023-03-23T09:15:29;23.20;99.90
26479;DHT22;14163;-26.142;27.992;2023-03-23T09:17:58;23.30;99.90
26479;DHT22;14163;-26.142;27.992;2023-03-23T09:20:28;23.60;99.90
26479;DHT22;14163;-26.142;27.992;2023-03-23T09:22:59;23.90;99.90
26479;DHT22;14163;-26.142;27.992;2023-03-23T09:25:28;23.90;99.90
26479;DHT22;14163;-26.142;27.992;2023-03-23T09:27:58;23.80;99.90
26479;DHT22;14163;-26.142;27.992;2023-03-23T09:30:29;24.00;99.90
26479;DHT22;14163;-26.142;27.992;2023-03-23T09:32:59;24.10;99.90
26479;DHT22;14163;-26.142;27.992;2023-03-23T09:35:29;24.10;99.90
26479;DHT22;14163;-26.142;27.992;2023-03-23T09:38:00;24.20;99.90
26479;DHT22;14163;-26.142;27.992;2023-03-23T09:40:38;24.40;99.90
26479;DHT22;14163;-26.142;27.992;2023-03-23T09:43:41;24.50;99.90
26479;DHT22;14163;-26.142;27.992;2023-03-23T09:46:27;24.50;99.90
26479;DHT22;14163;-26.142;27.992;2023-03-23T09:49:01;24.70;99.90
26479;DHT22;14163;-26.142;27.992;2023-03-23T09:51:41;25.10;99.90
26479;DHT22;14163;-26.142;27.992;2023-03-23T09:54:18;25.30;99.90
26479;DHT22;14163;-26.142;27.992;2023-03-23T09:56:49;24.70;99.90
26479;DHT22;14163;-26.142;27.992;2023-03-23T09:59:24;24.40;99.90
26479;DHT22;14163;-26.142;27.992;2023-03-23T10:01:59;24.40;99.90
26479;DHT22;14163;-26.142;27.992;2023-03-23T10:04:37;24.60;99.90
26479;DHT22;14163;-26.142;27.992;2023-03-23T10:07:11;24.70;99.90
26479;DHT22;14163;-26.142;27.992;2023-03-23T10:09:43;25.00;99.90
26479;DHT22;14163;-26.142;27.992;2023-03-23T10:12:22;25.30;99.90
26479;DHT22;14163;-26.142;27.992;2023-03-23T10:15:06;25.20;99.90
26479;DHT22;14163;-26.142;27.992;2023-03-23T10:17:44;25.00;99.90
26479;DHT22;14163;-26.142;27.992;2023-03-23T10:20:28;25.10;99.90
26479;DHT22;14163;-26.142;27.992;2023-03-23T10:23:05;25.60;99.90
26479;DHT22;14163;-26.142;27.992;2023-03-23T10:25:42;26.30;99.90
26479;DHT22;14163;-26.142;27.992;2023-03-23T10:28:13;26.40;99.90
26479;DHT22;14163;-26.142;27.992;2023-03-23T10:30:45;26.70;99.90
26479;DHT22;14163;-26.142;27.992;2023-03-23T10:33:18;26.20;99.90
26479;DHT22;14163;-26.142;27.992;2023-03-23T10:35:52;25.30;99.90
26479;DHT22;14163;-26.142;27.992;2023-03-23T10:38:26;25.20;99.90
26479;DHT22;14163;-26.142;27.992;2023-03-23T10:41:09;24.90;99.90
26479;DHT22;14163;-26.142;27.992;2023-03-23T10:43:40;25.30;99.90
26479;DHT22;14163;-26.142;27.992;2023-03-23T10:46:19;26.10;99.90
26479;DHT22;14163;-26.142;27.992;2023-03-23T10:48:52;26.50;99.90
26479;DHT22;14163;-26.142;27.992;2023-03-23T10:51:28;26.70;99.90
26479;DHT22;14163;-26.142;27.992;2023-03-23T10:54:01;27.10;99.90
26479;DHT22;14163;-26.142;27.992;2023-03-23T10:56:38;26.40;99.90
26479;DHT22;14163;-26.142;27.992;2023-03-23T10:59:14;26.30;99.90
26479;DHT22;14163;-26.142;27.992;2023-03-23T11:01:49;27.10;99.90
26479;DHT22;14163;-26.142;27.992;2023-03-23T11:04:19;27.20;99.90
26479;DHT22;14163;-26.142;27.992;2023-03-23T11:06:51;26.90;99.90
26479;DHT22;14163;-26.142;27.992;2023-03-23T11:09:33;27.10;99.90
26479;DHT22;14163;-26.142;27.992;2023-03-23T11:12:04;27.30;99.90
26479;DHT22;14163;-26.142;27.992;2023-03-23T11:14:35;28.00;99.90
26479;DHT22;14163;-26.142;27.992;2023-03-23T11:17:19;28.80;99.90
26479;DHT22;14163;-26.142;27.992;2023-03-23T11:19:49;28.70;99.90
26479;DHT22;14163;-26.142;27.992;2023-03-23T11:22:24;29.90;99.90
26479;DHT22;14163;-26.142;27.992;2023-03-23T11:24:55;30.40;99.90
26479;DHT22;14163;-26.142;27.992;2023-03-23T11:27:27;30.00;99.90
26479;DHT22;14163;-26.142;27.992;2023-03-23T11:30:00;29.50;99.90
26479;DHT22;14163;-26.142;27.992;2023-03-23T11:32:30;29.10;99.90
26479;DHT22;14163;-26.142;27.992;2023-03-23T11:35:01;29.30;99.90
26479;DHT22;14163;-26.142;27.992;2023-03-23T11:37:34;29.40;99.90
26479;DHT22;14163;-26.142;27.992;2023-03-23T11:40:16;29.90;99.90
26479;DHT22;14163;-26.142;27.992;2023-03-23T11:42:49;29.50;99.90
26479;DHT22;14163;-26.142;27.992;2023-03-23T11:45:20;29.50;99.90
26479;DHT22;14163;-26.142;27.992;2023-03-23T11:47:56;29.10;99.90
26479;DHT22;14163;-26.142;27.992;2023-03-23T11:50:28;29.10;99.90
26479;DHT22;14163;-26.142;27.992;2023-03-23T11:53:01;29.30;99.90
26479;DHT22;14163;-26.142;27.992;2023-03-23T11:55:35;30.40;99.90
26479;DHT22;14163;-26.142;27.992;2023-03-23T11:58:12;31.60;98.00
26479;DHT22;14163;-26.142;27.992;2023-03-23T12:00:44;31.80;95.30
26479;DHT22;14163;-26.142;27.992;2023-03-23T12:03:58;30.60;96.20
26479;DHT22;14163;-26.142;27.992;2023-03-23T12:06:34;30.20;97.40
26479;DHT22;14163;-26.142;27.992;2023-03-23T12:09:21;29.70;98.30
26479;DHT22;14163;-26.142;27.992;2023-03-23T12:12:01;29.70;98.20
26479;DHT22;14163;-26.142;27.992;2023-03-23T12:14:42;29.90;98.00
26479;DHT22;14163;-26.142;27.992;2023-03-23T12:17:22;30.10;97.20
26479;DHT22;14163;-26.142;27.992;2023-03-23T12:20:03;29.90;97.60
26479;DHT22;14163;-26.142;27.992;2023-03-23T12:22:49;28.90;98.00
26479;DHT22;14163;-26.142;27.992;2023-03-23T12:25:36;28.20;99.00
26479;DHT22;14163;-26.142;27.992;2023-03-23T12:28:14;27.50;99.90
26479;DHT22;14163;-26.142;27.992;2023-03-23T12:30:51;27.30;99.90
26479;DHT22;14163;-26.142;27.992;2023-03-23T12:33:32;27.10;99.90
26479;DHT22;14163;-26.142;27.992;2023-03-23T12:36:08;27.00;99.90
26479;DHT22;14163;-26.142;27.992;2023-03-23T12:38:51;27.00;99.90
26479;DHT22;14163;-26.142;27.992;2023-03-23T12:41:26;27.10;99.90
26479;DHT22;14163;-26.142;27.992;2023-03-23T12:44:00;26.90;99.90
26479;DHT22;14163;-26.142;27.992;2023-03-23T12:46:45;26.90;99.90
26479;DHT22;14163;-26.142;27.992;2023-03-23T12:49:21;27.20;99.90
26479;DHT22;14163;-26.142;27.992;2023-03-23T12:51:55;27.20;99.90
26479;DHT22;14163;-26.142;27.992;2023-03-23T12:54:31;28.60;99.90
26479;DHT22;14163;-26.142;27.992;2023-03-23T12:57:05;29.20;99.00
26479;DHT22;14163;-26.142;27.992;2023-03-23T12:59:41;29.40;97.90
26479;DHT22;14163;-26.142;27.992;2023-03-23T13:02:18;29.40;98.00
26479;DHT22;14163;-26.142;27.992;2023-03-23T13:04:55;29.70;97.00
26479;DHT22;14163;-26.142;27.992;2023-03-23T13:07:30;29.50;97.00
26479;DHT22;14163;-26.142;27.992;2023-03-23T13:10:05;29.70;97.00
26479;DHT22;14163;-26.142;27.992;2023-03-23T13:12:36;29.80;95.70
26479;DHT22;14163;-26.142;27.992;2023-03-23T13:15:18;29.60;95.20
26479;DHT22;14163;-26.142;27.992;2023-03-23T13:17:56;29.10;95.80
26479;DHT22;14163;-26.142;27.992;2023-03-23T13:20:47;29.10;96.10
26479;DHT22;14163;-26.142;27.992;2023-03-23T13:23:20;29.40;97.00
26479;DHT22;14163;-26.142;27.992;2023-03-23T13:25:52;29.80;95.30
26479;DHT22;14163;-26.142;27.992;2023-03-23T13:28:24;29.50;96.10
26479;DHT22;14163;-26.142;27.992;2023-03-23T13:31:00;29.40;96.50
26479;DHT22;14163;-26.142;27.992;2023-03-23T13:33:33;29.80;96.40
26479;DHT22;14163;-26.142;27.992;2023-03-23T13:36:09;30.00;95.70
26479;DHT22;14163;-26.142;27.992;2023-03-23T13:38:44;29.90;95.60
26479;DHT22;14163;-26.142;27.992;2023-03-23T13:41:15;29.80;95.80
26479;DHT22;14163;-26.142;27.992;2023-03-23T13:43:47;30.00;95.70
26479;DHT22;14163;-26.142;27.992;2023-03-23T13:46:28;29.60;95.10
26479;DHT22;14163;-26.142;27.992;2023-03-23T13:49:18;28.50;96.50
26479;DHT22;14163;-26.142;27.992;2023-03-23T13:52:01;28.30;97.50
26479;DHT22;14163;-26.142;27.992;2023-03-23T13:54:41;28.10;96.90
26479;DHT22;14163;-26.142;27.992;2023-03-23T13:57:32;27.90;97.70
26479;DHT22;14163;-26.142;27.992;2023-03-23T14:00:24;27.70;97.00
26479;DHT22;14163;-26.142;27.992;2023-03-23T14:03:00;27.20;98.00
26479;DHT22;14163;-26.142;27.992;2023-03-23T14:05:37;27.40;97.90
26479;DHT22;14163;-26.142;27.992;2023-03-23T14:08:14;27.60;98.00
26479;DHT22;14163;-26.142;27.992;2023-03-23T14:10:52;27.80;98.00
26479;DHT22;14163;-26.142;27.992;2023-03-23T14:13:28;28.00;97.80
26479;DHT22;14163;-26.142;27.992;2023-03-23T14:16:02;28.00;97.00
26479;DHT22;14163;-26.142;27.992;2023-03-23T14:18:35;28.00;97.30
26479;DHT22;14163;-26.142;27.992;2023-03-23T14:21:15;28.00;97.10
26479;DHT22;14163;-26.142;27.992;2023-03-23T14:23:44;27.60;97.90
26479;DHT22;14163;-26.142;27.992;2023-03-23T14:26:19;27.70;98.10
26479;DHT22;14163;-26.142;27.992;2023-03-23T14:28:51;27.30;97.90
26479;DHT22;14163;-26.142;27.992;2023-03-23T14:31:24;27.20;98.20
26479;DHT22;14163;-26.142;27.992;2023-03-23T14:33:55;27.40;98.60
26479;DHT22;14163;-26.142;27.992;2023-03-23T14:36:29;27.70;97.90
26479;DHT22;14163;-26.142;27.992;2023-03-23T14:39:02;27.70;98.20
26479;DHT22;14163;-26.142;27.992;2023-03-23T14:41:35;28.10;98.10
26479;DHT22;14163;-26.142;27.992;2023-03-23T14:44:08;28.20;97.60
26479;DHT22;14163;-26.142;27.992;2023-03-23T14:46:38;28.00;97.80
26479;DHT22;14163;-26.142;27.992;2023-03-23T14:49:07;28.00;97.90
26479;DHT22;14163;-26.142;27.992;2023-03-23T14:51:46;28.00;98.20
26479;DHT22;14163;-26.142;27.992;2023-03-23T14:54:15;28.20;98.30
26479;DHT22;14163;-26.142;27.992;2023-03-23T14:56:44;28.40;97.50
26479;DHT22;14163;-26.142;27.992;2023-03-23T14:59:14;28.20;97.80
26479;DHT22;14163;-26.142;27.992;2023-03-23T15:01:44;28.10;98.40
26479;DHT22;14163;-26.142;27.992;2023-03-23T15:04:16;27.80;98.10
26479;DHT22;14163;-26.142;27.992;2023-03-23T15:06:50;27.30;98.50
26479;DHT22;14163;-26.142;27.992;2023-03-23T15:09:22;27.20;99.00
26479;DHT22;14163;-26.142;27.992;2023-03-23T15:11:55;27.40;98.80
26479;DHT22;14163;-26.142;27.992;2023-03-23T15:14:29;27.70;98.30
26479;DHT22;14163;-26.142;27.992;2023-03-23T15:16:59;27.40;99.10
26479;DHT22;14163;-26.142;27.992;2023-03-23T15:19:32;27.40;99.00
26479;DHT22;14163;-26.142;27.992;2023-03-23T15:22:13;27.40;99.20
26479;DHT22;14163;-26.142;27.992;2023-03-23T15:24:44;27.50;99.10
26479;DHT22;14163;-26.142;27.992;2023-03-23T15:27:16;27.70;99.30
26479;DHT22;14163;-26.142;27.992;2023-03-23T15:29:50;28.00;99.10
26479;DHT22;14163;-26.142;27.992;2023-03-23T15:32:25;28.10;99.20
26479;DHT22;14163;-26.142;27.992;2023-03-23T15:35:04;28.00;98.70
26479;DHT22;14163;-26.142;27.992;2023-03-23T15:37:44;28.00;98.60
26479;DHT22;14163;-26.142;27.992;2023-03-23T15:40:18;27.90;99.00
26479;DHT22;14163;-26.142;27.992;2023-03-23T15:42:49;27.90;98.70
26479;DHT22;14163;-26.142;27.992;2023-03-23T15:45:53;27.60;98.40
26479;DHT22;14163;-26.142;27.992;2023-03-23T15:48:25;27.50;98.80
26479;DHT22;14163;-26.142;27.992;2023-03-23T15:50:56;27.70;99.30
26479;DHT22;14163;-26.142;27.992;2023-03-23T15:53:32;27.90;99.10
26479;DHT22;14163;-26.142;27.992;2023-03-23T15:56:02;28.00;98.90
26479;DHT22;14163;-26.142;27.992;2023-03-23T15:58:33;27.80;98.30
26479;DHT22;14163;-26.142;27.992;2023-03-23T16:01:06;27.60;98.60
26479;DHT22;14163;-26.142;27.992;2023-03-23T16:03:38;27.60;99.00
26479;DHT22;14163;-26.142;27.992;2023-03-23T16:06:11;27.60;99.20
26479;DHT22;14163;-26.142;27.992;2023-03-23T16:08:42;27.80;99.00
26479;DHT22;14163;-26.142;27.992;2023-03-23T16:11:13;27.60;98.80
26479;DHT22;14163;-26.142;27.992;2023-03-23T16:13:43;27.50;99.10
26479;DHT22;14163;-26.142;27.992;2023-03-23T16:16:14;27.40;99.10
26479;DHT22;14163;-26.142;27.992;2023-03-23T16:18:43;27.60;99.40
26479;DHT22;14163;-26.142;27.992;2023-03-23T16:21:13;27.40;98.90
26479;DHT22;14163;-26.142;27.992;2023-03-23T16:23:44;27.30;98.80
26479;DHT22;14163;-26.142;27.992;2023-03-23T16:26:13;27.10;99.30
26479;DHT22;14163;-26.142;27.992;2023-03-23T16:28:43;26.90;99.60
26479;DHT22;14163;-26.142;27.992;2023-03-23T16:31:15;27.00;99.60
26479;DHT22;14163;-26.142;27.992;2023-03-23T16:33:44;27.00;99.70
26479;DHT22;14163;-26.142;27.992;2023-03-23T16:36:24;26.80;99.90
26479;DHT22;14163;-26.142;27.992;2023-03-23T16:38:56;26.70;99.90
26479;DHT22;14163;-26.142;27.992;2023-03-23T16:41:25;26.50;99.90
26479;DHT22;14163;-26.142;27.992;2023-03-23T16:43:54;26.60;99.90
26479;DHT22;14163;-26.142;27.992;2023-03-23T16:46:24;26.50;99.90
26479;DHT22;14163;-26.142;27.992;2023-03-23T16:48:56;26.40;99.90
26479;DHT22;14163;-26.142;27.992;2023-03-23T16:51:25;26.40;99.90
26479;DHT22;14163;-26.142;27.992;2023-03-23T16:53:57;26.40;99.90
26479;DHT22;14163;-26.142;27.992;2023-03-23T16:56:26;26.40;99.90
26479;DHT22;14163;-26.142;27.992;2023-03-23T16:58:56;26.50;99.90
26479;DHT22;14163;-26.142;27.992;2023-03-23T17:01:26;26.50;99.90
26479;DHT22;14163;-26.142;27.992;2023-03-23T17:03:55;26.40;99.90
26479;DHT22;14163;-26.142;27.992;2023-03-23T17:06:25;26.20;99.90
26479;DHT22;14163;-26.142;27.992;2023-03-23T17:08:56;26.30;99.90
26479;DHT22;14163;-26.142;27.992;2023-03-23T17:11:25;26.50;99.90
26479;DHT22;14163;-26.142;27.992;2023-03-23T17:13:54;26.40;99.90
26479;DHT22;14163;-26.142;27.992;2023-03-23T17:16:23;26.30;99.90
26479;DHT22;14163;-26.142;27.992;2023-03-23T17:18:53;26.20;99.90
26479;DHT22;14163;-26.142;27.992;2023-03-23T17:21:22;26.20;99.90
26479;DHT22;14163;-26.142;27.992;2023-03-23T17:23:53;26.30;99.90
26479;DHT22;14163;-26.142;27.992;2023-03-23T17:26:23;26.20;99.90
26479;DHT22;14163;-26.142;27.992;2023-03-23T17:28:53;26.40;99.90
26479;DHT22;14163;-26.142;27.992;2023-03-23T17:31:22;26.30;99.90
26479;DHT22;14163;-26.142;27.992;2023-03-23T17:33:52;26.30;99.90
26479;DHT22;14163;-26.142;27.992;2023-03-23T17:36:23;26.40;99.90
26479;DHT22;14163;-26.142;27.992;2023-03-23T17:38:52;26.40;99.90
26479;DHT22;14163;-26.142;27.992;2023-03-23T17:41:23;26.40;99.90
26479;DHT22;14163;-26.142;27.992;2023-03-23T17:43:52;26.40;99.90
26479;DHT22;14163;-26.142;27.992;2023-03-23T17:46:21;26.30;99.90
26479;DHT22;14163;-26.142;27.992;2023-03-23T17:48:51;26.20;99.90
26479;DHT22;14163;-26.142;27.992;2023-03-23T17:51:20;26.10;99.90
26479;DHT22;14163;-26.142;27.992;2023-03-23T17:53:49;26.50;99.90